Barksdale Air Force Base

KBAD · Luizjana, Stany Zjednoczone

Historia METAR KBAD · Barksdale Air Force Base

Poniżej widzisz METAR-y z ostatnich kilku dni. Wybierz rok, aby przeglądać starsze METAR-y, począwszy od roku 2007.

2 marca 2024

Czas Kod Pogoda Temp. Widoczność Sufit Wiatr METAR/SPECI
02:35
V
7 °C 9 mi - 360° 360° 0 kt METAR KBAD 020835Z AUTO 00000KT 9SM CLR 07/06 A3006 RMK AO2 SLP184
02:25
L
7 °C ¾ mi - 360° 360° 0 kt METAR KBAD 020825Z AUTO 00000KT 3/4SM R15/1400VP6000FT BR CLR 07/06 A3007 RMK AO2 VIS 3/8V4 SLP187
01:55
V
6 °C 10 mi - 360° 360° 0 kt METAR KBAD 020755Z AUTO 00000KT 10SM CLR 06/05 A3007 RMK AO2 SLP187 T00640053
00:55
V
7 °C 7 mi - 360° 360° 0 kt METAR KBAD 020655Z AUTO 00000KT 7SM CLR 07/06 A3008 RMK AO2 SLP190 T00730062

1 marca 2024

Czas Kod Pogoda Temp. Widoczność Sufit Wiatr METAR/SPECI
23:55
V
8 °C 10 mi - 360° 360° 0 kt METAR KBAD 020555Z AUTO 00000KT 10SM CLR 08/06 A3007 RMK AO2 SLP187 T00760062 10134 20074 401600051 58002
21:55
V
9 °C 10 mi - 360° 360° 0 kt METAR KBAD 020355Z AUTO 00000KT 10SM CLR 09/07 A3008 RMK AO2 SLP190 T00870068
20:55
V
10 °C 10 mi - 360° 360° 0 kt METAR KBAD 020255Z AUTO 00000KT 10SM CLR 10/07 A3008 RMK AO2 SLP190 T00980072 53003
19:55
V
10 °C 10 mi - 360° 360° 0 kt METAR KBAD 020155Z AUTO 00000KT 10SM CLR 10/07 A3006 RMK AO2 SLP184 T01030072
18:55
V
12 °C 10 mi - 120° 120° 3 kt METAR KBAD 020055Z AUTO 12003KT 10SM CLR 12/07 A3007 RMK AO2 SLP187 T01200073
16:55
V
15 °C 10 mi - 360° 360° 0 kt METAR KBAD 012255Z AUTO 00000KT 10SM CLR 15/07 A3006 RMK AO2 SLP183 T01540069
15:55
V
15 °C 10 mi - 360° 360° 0 kt METAR KBAD 012155Z AUTO 00000KT 10SM CLR 15/07 A3007 RMK AO2 SLP187 T01500068
14:55
V
14 °C 8 mi - 360° 360° 0 kt METAR KBAD 012055Z AUTO 00000KT 8SM CLR 14/06 A3008 RMK AO2 SLP190 T01400061 57024
14:05
V
13 °C 10 mi - 280° 280° 3 kt METAR KBAD 012005Z AUTO 28003KT 10SM SCT023 13/06 A3009 RMK AO2 SLP194
13:55
M
14 °C 10 mi 2.300 ft 290° 290° 3 kt METAR KBAD 011955Z AUTO 29003KT 10SM BKN023 14/08 A3010 RMK AO2 CIG 021 RWY15 SLP197 T01380078
12:55
M
12 °C 10 mi 2.500 ft 240° 240° 3 kt METAR KBAD 011855Z AUTO 24003KT 10SM OVC025 12/06 A3012 RMK AO2 CIG 021 RWY15 SLP204 T01150064
12:15
M
11 °C 10 mi 2.600 ft 230° 230° 4 kt METAR KBAD 011815Z AUTO 23004KT 10SM SCT018 OVC026 11/05 A3015 RMK AO2 CIG 018V026 OVC V BKN CIG 020 RWY15 SLP214
11:55
M
11 °C 10 mi 1.900 ft 220° 220° 4 kt METAR KBAD 011755Z AUTO 22004KT 10SM BKN019 BKN026 11/06 A3015 RMK AO2 SLP214 T01070059 10107 20062 58002
11:42
M
10 °C 10 mi 2.100 ft Var Var 3 kt METAR KBAD 011742Z VRB03KT 10SM BKN021 10/06 A3016 RMK AO2A SLP218
10:55
M
9 °C 10 mi 1.200 ft 360° 360° 0 kt METAR KBAD 011655Z 00000KT 10SM BKN012 OVC021 09/05 A3017 RMK AO2A SLP221 T00900052
10:15
M
9 °C 10 mi 1.100 ft 360° 360° 0 kt METAR KBAD 011615Z 00000KT 10SM BKN011 OVC022 09/06 A3017 RMK AO2A SLP221
09:55
I
8 °C 10 mi 900 ft 360° 360° 0 kt METAR KBAD 011555Z 00000KT 10SM BKN009 OVC024 08/05 A3017 RMK AO2A SLP221 T00830054
09:35
I
9 °C 10 mi 900 ft 360° 360° 0 kt METAR KBAD 011535Z 00000KT 10SM BKN009 OVC024 09/06 A3017 RMK AO2A SLP221
09:14
I
8 °C 10 mi 800 ft 340° 340° 4 kt METAR KBAD 011514Z 34004KT 10SM BKN008 OVC021 08/05 A3016 RMK AO2A SLP218
08:55
I
7 °C 10 mi 700 ft 010° 010° 5 kt METAR KBAD 011455Z 01005KT 10SM BKN007 OVC021 07/05 A3016 RMK AO2A SLP218 T00740052 51005
08:28
I
8 °C 10 mi 800 ft 010° 010° 5 kt METAR KBAD 011428Z 01005KT 10SM BKN008 OVC023 08/06 A3016 RMK AO2A SLP218
08:09
I
7 °C 10 mi 700 ft 010° 010° 6 kt METAR KBAD 011409Z 01006KT 10SM BKN007 OVC024 07/05 A3015 RMK AO2A SLP214
07:55
M
7 °C 10 mi 2.400 ft 010° 010° 6 kt METAR KBAD 011355Z AUTO 01006KT 10SM FEW007 OVC024 07/05 A3016 RMK AO2 SLP218 T00660046
06:55
I
6 °C 10 mi 700 ft 350° 350° 5 kt METAR KBAD 011255Z AUTO 35005KT 10SM OVC007 06/05 A3016 RMK AO2 SLP218 T00640047
06:42
I
7 °C 10 mi 700 ft 050° 050° 4 kt METAR KBAD 011242Z AUTO 05004KT 10SM OVC007 07/05 A3015 RMK AO2 SLP214
06:32
I
7 °C 10 mi 600 ft 040° 040° 3 kt METAR KBAD 011232Z AUTO 04003KT 10SM BKN006 OVC022 07/05 A3015 RMK AO2 CIG 006V022 BKN V SCT SLP214
06:22
M
7 °C 10 mi 2.200 ft 360° 360° 0 kt METAR KBAD 011222Z AUTO 00000KT 10SM SCT006 OVC022 07/05 A3015 RMK AO2 OVC V BKN SLP214
05:55
M
6 °C 10 mi 2.200 ft 360° 360° 0 kt METAR KBAD 011155Z AUTO 00000KT 10SM BKN022 OVC037 06/04 A3015 RMK AO2 SLP214 60000 70011 T00620044 10064 20051 55000
04:55
I
6 °C 10 mi 600 ft 020° 020° 4 kt METAR KBAD 011055Z AUTO 02004KT 10SM OVC006 06/05 A3012 RMK AO2 SLP204 T00610046
04:35
I
6 °C 10 mi 500 ft 360° 360° 0 kt METAR KBAD 011035Z AUTO 00000KT 10SM OVC005 06/05 A3012 RMK AO2 SLP204
03:55
I
6 °C 10 mi 600 ft 020° 020° 3 kt METAR KBAD 010955Z 02003KT 10SM BKN006 OVC034 06/04 A3012 RMK AO2A SLP204 T00590042
02:55
I
6 °C 10 mi 500 ft 360° 360° 0 kt METAR KBAD 010855Z 00000KT 10SM BKN005 OVC039 06/04 A3014 RMK AO2A DZE0755RAB0755E01DZB01E05 SLP211 P0000 60000 T00580044 57035
01:55
I
6 °C 10 mi 500 ft 360° 360° 0 kt METAR KBAD 010755Z 00000KT 10SM -DZ BKN005 OVC039 06/04 A3017 RMK RAB0655E0705DZB0705E0708DZB0749E0752RAB0752E01DZB01 SLP221 P0000 60001 T00550040 57033
00:55
I
5 °C 10 mi 500 ft 100° 100° 5 kt METAR KBAD 010655Z 10005KT 10SM BKN005 OVC042 05/04 A3020 RMK AO2A DZE0559RAB00E01DZB01E02RAB02E19DZB19E21 SLP231 P0000 T00540040
00:32
I
5 °C 10 mi 500 ft 100° 100° 5 kt METAR KBAD 010632Z 10005KT 10SM BKN005 OVC042 05/04 A3021 RMK DZE0559RAB00E01DZB01E02RAB02E19DZB19E21 PRESFR SLP235
00:21
V
5 °C 10 mi 4.200 ft 100° 100° 6 kt METAR KBAD 010621Z AUTO 10006KT 10SM FEW005 SCT029 OVC042 05/04 A3023 RMK AO2 DZE0559RAB00E01DZB01E02RAB02E19DZB19E21 SLP241
00:18
V
5 °C 9 mi 4.200 ft 100° 100° 6 kt METAR KBAD 010618Z AUTO 10006KT 9SM -RA FEW005 SCT023 SCT029 OVC042 05/04 A3023 RMK AO2 DZE0559RAB00E01DZB01E02RAB02 SLP241
00:08
I
5 °C 7 mi 500 ft 090° 090° 6 kt METAR KBAD 010608Z AUTO 09006KT 7SM -RA BKN005 BKN023 BKN030 OVC042 05/04 A3023 RMK AO2 DZE0559RAB00E01DZB01E02RAB02 SLP241

29 lutego 2024

Czas Kod Pogoda Temp. Widoczność Sufit Wiatr METAR/SPECI
23:55
I
5 °C 5 mi 500 ft 080° 080° 4 kt METAR KBAD 010555Z AUTO 08004KT 5SM -DZ BR BKN005 OVC023 05/04 A3025 RMK AO2 RAE0459DZB0459E28DZB46 BKN V OVC SLP248 P0001 60011 T00530039 10100 20053 401270053 55005
23:46
I
6 °C 4 mi 500 ft 080° 080° 5 kt METAR KBAD 010546Z AUTO 08005KT 4SM -DZ BR OVC005 06/04 A3025 RMK AO2 RAE0459DZB0459E28DZB46 SLP248
23:05
I
6 °C 8 mi 600 ft 360° 360° 3 kt METAR KBAD 010505Z AUTO 36003KT 8SM -DZ BKN006 OVC020 06/04 A3027 RMK AO2 RAE0459DZB0459 CIG 006V022 BKN V SCT SLP255
22:55
M
6 °C 6 mi 2.200 ft 360° 360° 0 kt METAR KBAD 010455Z AUTO 00000KT 6SM -RA BR SCT006 OVC022 06/04 A3027 RMK AO2 TSE0356 OVC V BKN CIG 021 RWY33 SLP255 P0002 T00570037
22:44
M
6 °C 8 mi 2.300 ft 360° 360° 0 kt METAR KBAD 010444Z AUTO 00000KT 8SM -RA FEW006 BKN023 OVC038 06/03 A3028 RMK AO2 TSE0356 CIG 021 RWY33 SLP258
21:55
V
6 °C 10 mi 4.000 ft 040° 040° 4 kt METAR KBAD 010355Z AUTO 04004KT 10SM -TSRA OVC040 06/03 A3026 RMK AO2 RAE42DZB42E43RAB43 TSE0256TSB46 SLP252 P0006 T00590032
21:46
V
6 °C 10 mi 4.000 ft 060° 060° 3 kt METAR KBAD 010346Z AUTO 06003KT 10SM -TSRA BKN040 OVC055 06/04 A3026 RMK AO2 RAE42DZB42E43RAB43 TSE0256TSB46 SLP252
20:56
V
7 °C 7 mi 3.500 ft 290° 290° 3 kt METAR KBAD 010256Z 29003KT 7SM -RA OVC035 07/03 A3027 RMK AO2A LTG DSNT SE TSE56 SLP255
20:40
V
7 °C 10 mi 3.200 ft 360° 360° 0 kt METAR KBAD 010240Z 00000KT 10SM -TSRA OVC032 07/03 A3026 RMK AO2A RAE10DZB10E21RAB25 TSB40 PRESRR SLP252
20:25
V
7 °C 10 mi 3.100 ft 360° 360° 0 kt METAR KBAD 010225Z AUTO 00000KT 10SM VCTS -RA OVC031 07/03 A3024 RMK AO2 RAE10DZB10E21RAB25 SLP245
19:50
M
7 °C 10 mi 2.900 ft 090° 090° 3 kt METAR KBAD 010150Z AUTO 09003KT 10SM -RA OVC029 07/02 A3023 RMK AO2 RAB50 SLP241
18:55
M
7 °C 10 mi 2.400 ft 090° 090° 8 kt METAR KBAD 010055Z AUTO 09008KT 10SM OVC024 07/02 A3021 RMK AO2 RAB17E24DZB24E34 OVC V BKN SLP235 P0000 T00740015
18:34
M
8 °C 10 mi 2.900 ft 080° 080° 10 kt METAR KBAD 010034Z AUTO 08010KT 10SM BKN029 OVC035 08/01 A3022 RMK AO2 RAB17E24DZB24E34 CIG 029V035 BKN V SCT SLP238
18:17
V
9 °C 10 mi 3.500 ft 100° 100° 8 kt METAR KBAD 010017Z AUTO 10008KT 10SM -RA OVC035 09/02 A3022 RMK AO2 RAB17 SLP238
17:55
M
8 °C 10 mi 3.000 ft 110° 110° 8 kt METAR KBAD 292355Z AUTO 11008KT 10SM OVC030 08/02 A3023 RMK AO2 SLP241 60000 T00810021 10127 20080 55016
16:54
V
8 °C 10 mi 3.400 ft 120° 120° 6 kt METAR KBAD 292254Z AUTO 12006KT 10SM FEW024 BKN034 OVC042 08/02 A3025 RMK AO2 RAB38E54 SLP248
16:38
V
10 °C 10 mi 3.700 ft 120° 120° 9 kt METAR KBAD 292238Z AUTO 12009KT 10SM -RA FEW022 SCT029 BKN037 OVC044 10/M03 A3024 RMK AO2 RAB38 SLP245
15:55
V
12 °C 10 mi 6.000 ft 090° 090° 5 kt METAR KBAD 292155Z AUTO 09005KT 10SM SCT045 OVC060 12/M04 A3025 RMK AO2 SLP248 T01171045
14:55
V
12 °C 10 mi 4.400 ft 090° 090° 6 kt METAR KBAD 292055Z AUTO 09006KT 10SM OVC044 12/M06 A3027 RMK AO2 SLP255 T01191056 57031
13:55
V
12 °C 10 mi 4.800 ft 100° 100° 9 kt METAR KBAD 291955Z AUTO 10009KT 10SM OVC048 12/M06 A3028 RMK AO2 SLP258 T01221063
12:55
V
12 °C 10 mi - 050° 050° 7 kt METAR KBAD 291855Z AUTO 05007KT 10SM FEW049 SCT140 12/M05 A3032 RMK AO2 SLP272 T01221053
11:55
V
11 °C 10 mi 13.000 ft 060° 060° 7 kt METAR KBAD 291755Z AUTO 06007KT 10SM BKN130 11/M06 A3036 RMK AO2 SLP285 60000 T01061058 10109 20078 55011
10:55
V
10 °C 10 mi - 070° 070° 8 kt METAR KBAD 291655Z AUTO 07008KT 10SM SCT110 10/M05 A3039 RMK AO2 SLP295 T00991052
09:55
V
9 °C 10 mi - 060° 060° 9 kt METAR KBAD 291555Z AUTO 06009KT 10SM SCT110 SCT170 09/M04 A3038 RMK AO2 SLP292 T00881044
08:55
V
8 °C 10 mi 14.000 ft 040° 040° 7 kt METAR KBAD 291455Z AUTO 04007KT 10SM BKN140 08/M04 A3040 RMK AO2 DZB1359E03RAB03E14DZB14E17 SLP299 P0000 60000 T00821043 50009
08:17
V
8 °C 10 mi 13.000 ft 060° 060° 5 kt METAR KBAD 291417Z AUTO 06005KT 10SM SCT095 OVC130 08/M04 A3039 RMK AO2 DZB1359E03RAB03E14DZB14E17 PRESFR SLP296
07:59
V
8 °C 10 mi 10.000 ft 060° 060° 6 kt METAR KBAD 291359Z AUTO 06006KT 10SM -DZ OVC100 08/M05 A3041 RMK AO2 DZB59 SLP302
07:55
V
8 °C 10 mi 10.000 ft 040° 040° 7 kt METAR KBAD 291355Z AUTO 04007KT 10SM OVC100 08/M05 A3040 RMK AO2 SLP299 T00811054
06:55
V
8 °C 10 mi 10.000 ft 050° 050° 5 kt METAR KBAD 291255Z AUTO 05005KT 10SM BKN100 08/M06 A3040 RMK AO2 SLP299 T00821060
05:55
V
8 °C 10 mi 9.000 ft 060° 060° 7 kt METAR KBAD 291155Z AUTO 06007KT 10SM OVC090 08/M06 A3037 RMK AO2 SLP289 60000 T00821056 10103 20081 53002
04:55
V
8 °C 10 mi 9.500 ft 070° 070° 6 kt METAR KBAD 291055Z AUTO 07006KT 10SM OVC095 08/M06 A3036 RMK AO2 DZE0955 SLP285 T00831059
03:56
V
10 °C 10 mi 10.000 ft 060° 060° 8 kt METAR KBAD 290956Z AUTO 06008KT 10SM OVC100 10/M06 A3035 RMK AO2 DZE55 SLP282
02:55
V
9 °C 10 mi - 030° 030° 9 kt METAR KBAD 290855Z AUTO 03009KT 10SM SCT110 09/M07 A3036 RMK AO2 SLP285 T00861068 55001
01:55
V
9 °C 10 mi 10.000 ft 020° 020° 7 kt METAR KBAD 290755Z AUTO 02007KT 10SM BKN100 09/M05 A3038 RMK AO2 SLP292 T00901053
00:55
V
9 °C 10 mi - 070° 070° 7 kt METAR KBAD 290655Z AUTO 07007KT 10SM CLR 09/M05 A3034 RMK AO2 SLP278 T00921055

28 lutego 2024

Czas Kod Pogoda Temp. Widoczność Sufit Wiatr METAR/SPECI
23:55
V
10 °C 10 mi 11.000 ft 050° 050° 5 kt METAR KBAD 290555Z AUTO 05005KT 10SM BKN110 10/M05 A3037 RMK AO2 SLP289 T00961048 10115 20094 402310094 50004